Time;durP1;ratioP1;P1;durP2;ratioP2;P2;SDS_P1;SDS_P2;PMS_P1;PMS_P2;Temp;Humidity;BMP_temperature;BMP_pressure;BME280_temperature;BME280_humidity;BME280_pressure;Samples;Min_cycle;Max_cycle;Signal;HPM_P1;HPM_P2
2024/01/07 00:01:50;;;;;;;11.73;4.47;;;;;;;;;;5073130;28;20023;-66
2024/01/07 00:04:36;;;;;;;8.88;4.10;;;;;;;;;;5073215;28;20024;-66
2024/01/07 00:07:22;;;;;;;6.55;4.13;;;;;;;;;;5073639;28;20021;-66
2024/01/07 00:10:09;;;;;;;5.90;4.13;;;;;;;;;;5073003;28;20494;-66
2024/01/07 00:12:55;;;;;;;9.55;4.07;;;;;;;;;;5073169;28;20438;-66
2024/01/07 00:15:40;;;;;;;8.77;4.50;;;;;;;;;;5072554;28;20032;-66
2024/01/07 00:18:27;;;;;;;7.00;3.78;;;;;;;;;;5073043;28;20036;-66
2024/01/07 00:21:12;;;;;;;6.40;3.92;;;;;;;;;;5073269;28;20066;-66
2024/01/07 00:23:58;;;;;;;8.68;4.35;;;;;;;;;;5073265;28;20505;-67
2024/01/07 00:26:43;;;;;;;10.68;5.70;;;;;;;;;;5072791;28;20411;-66
2024/01/07 00:29:30;;;;;;;11.77;4.53;;;;;;;;;;5072875;28;20020;-66
2024/01/07 00:32:15;;;;;;;6.57;3.67;;;;;;;;;;5073293;28;20479;-66
2024/01/07 00:35:02;;;;;;;7.55;4.00;;;;;;;;;;5072409;28;20060;-66
2024/01/07 00:37:47;;;;;;;8.82;4.45;;;;;;;;;;5072103;28;20043;-66
2024/01/07 00:40:33;;;;;;;7.20;4.28;;;;;;;;;;5072596;28;20025;-66
2024/01/07 00:43:19;;;;;;;8.30;4.07;;;;;;;;;;5072383;28;20020;-66
2024/01/07 00:46:04;;;;;;;10.13;4.15;;;;;;;;;;5072891;28;20028;-66
2024/01/07 00:48:50;;;;;;;7.20;3.95;;;;;;;;;;5070897;28;20023;-66
2024/01/07 00:51:35;;;;;;;9.30;4.75;;;;;;;;;;5070381;28;20032;-66
2024/01/07 00:54:21;;;;;;;7.07;4.38;;;;;;;;;;5072627;28;20020;-67
2024/01/07 00:57:07;;;;;;;9.43;5.30;;;;;;;;;;5071451;28;20028;-66
2024/01/07 00:59:52;;;;;;;9.00;4.53;;;;;;;;;;5068870;28;20031;-66
2024/01/07 01:02:38;;;;;;;8.68;4.15;;;;;;;;;;5072403;28;20047;-66
2024/01/07 01:05:24;;;;;;;11.65;3.72;;;;;;;;;;5061256;28;20075;-67
2024/01/07 01:08:09;;;;;;;6.70;3.92;;;;;;;;;;5072167;28;20052;-66
2024/01/07 01:10:55;;;;;;;7.90;4.10;;;;;;;;;;5071197;28;20020;-66
2024/01/07 01:13:41;;;;;;;11.85;4.57;;;;;;;;;;5071798;28;20516;-66
2024/01/07 01:16:26;;;;;;;8.27;4.78;;;;;;;;;;5069157;28;20032;-66
2024/01/07 01:19:12;;;;;;;7.28;3.97;;;;;;;;;;5072853;28;20028;-66
2024/01/07 01:21:57;;;;;;;8.35;5.05;;;;;;;;;;5072243;28;20394;-65
2024/01/07 01:24:45;;;;;;;9.60;4.63;;;;;;;;;;5071005;28;20020;-66
2024/01/07 01:27:31;;;;;;;8.38;4.65;;;;;;;;;;5071445;28;20100;-66
2024/01/07 01:30:17;;;;;;;10.85;5.65;;;;;;;;;;5071222;28;20409;-66
2024/01/07 01:33:02;;;;;;;6.18;4.13;;;;;;;;;;5072272;28;20073;-66
2024/01/07 01:35:48;;;;;;;8.82;5.13;;;;;;;;;;5071224;28;20508;-66
2024/01/07 01:38:34;;;;;;;9.00;4.15;;;;;;;;;;5071973;28;20103;-66
2024/01/07 01:41:19;;;;;;;9.55;4.63;;;;;;;;;;5071755;28;20086;-66
2024/01/07 01:44:05;;;;;;;5.43;4.20;;;;;;;;;;5072339;28;20024;-67
2024/01/07 01:46:50;;;;;;;9.93;5.57;;;;;;;;;;5073099;28;20021;-66
2024/01/07 01:49:37;;;;;;;10.85;4.70;;;;;;;;;;5071816;28;20028;-66
2024/01/07 01:52:23;;;;;;;9.07;4.65;;;;;;;;;;5072271;28;20025;-66
2024/01/07 01:55:09;;;;;;;8.75;4.03;;;;;;;;;;5057683;28;20074;-66
2024/01/07 01:57:56;;;;;;;7.95;4.32;;;;;;;;;;5071361;28;20441;-66
2024/01/07 02:00:41;;;;;;;5.88;3.58;;;;;;;;;;5072161;28;20089;-66
2024/01/07 02:03:27;;;;;;;10.43;5.45;;;;;;;;;;5072223;28;20020;-66
2024/01/07 02:06:13;;;;;;;7.05;4.38;;;;;;;;;;5071483;28;20025;-66
2024/01/07 02:08:58;;;;;;;7.85;4.57;;;;;;;;;;5071950;28;20091;-66
2024/01/07 02:12:00;;;;;;;9.40;4.68;;;;;;;;;;5071408;28;20032;-66
2024/01/07 02:14:45;;;;;;;11.30;4.40;;;;;;;;;;5071249;28;20482;-67
2024/01/07 02:17:31;;;;;;;11.07;4.00;;;;;;;;;;5071300;28;20115;-66
2024/01/07 02:20:17;;;;;;;6.75;4.97;;;;;;;;;;5057542;28;20395;-66
2024/01/07 02:23:03;;;;;;;11.20;4.95;;;;;;;;;;5073081;28;20021;-66
2024/01/07 02:25:49;;;;;;;11.30;4.90;;;;;;;;;;5075036;28;20051;-66
2024/01/07 02:28:35;;;;;;;8.95;5.20;;;;;;;;;;5075649;28;20066;-66
2024/01/07 02:31:21;;;;;;;11.52;5.28;;;;;;;;;;5075695;28;20029;-66
2024/01/07 02:34:09;;;;;;;13.18;4.60;;;;;;;;;;5074665;28;20520;-66
2024/01/07 02:36:54;;;;;;;12.20;5.05;;;;;;;;;;5056055;28;20033;-66
2024/01/07 02:39:40;;;;;;;12.27;4.95;;;;;;;;;;5054681;28;20017;-66
2024/01/07 02:42:26;;;;;;;10.27;4.60;;;;;;;;;;5055192;28;20112;-66
2024/01/07 02:45:11;;;;;;;7.88;4.30;;;;;;;;;;5055116;28;20068;-67
2024/01/07 02:47:57;;;;;;;7.95;4.50;;;;;;;;;;5056300;28;20024;-66
2024/01/07 02:50:43;;;;;;;7.97;4.72;;;;;;;;;;5054500;28;20036;-67
2024/01/07 02:53:28;;;;;;;6.97;4.40;;;;;;;;;;5054967;28;20028;-66
2024/01/07 02:56:14;;;;;;;10.52;4.65;;;;;;;;;;5054708;28;20043;-66
2024/01/07 02:59:00;;;;;;;10.18;5.05;;;;;;;;;;5054361;28;20486;-66
2024/01/07 03:01:46;;;;;;;8.48;4.32;;;;;;;;;;5054993;28;20094;-66
2024/01/07 03:04:31;;;;;;;10.80;4.53;;;;;;;;;;5055905;28;20104;-66
2024/01/07 03:07:17;;;;;;;9.20;4.88;;;;;;;;;;5054674;28;20017;-66
2024/01/07 03:10:03;;;;;;;6.85;4.15;;;;;;;;;;5054076;28;20103;-66
2024/01/07 03:12:48;;;;;;;9.18;4.95;;;;;;;;;;5055631;28;20025;-66
2024/01/07 03:15:34;;;;;;;7.40;4.30;;;;;;;;;;5053946;28;20086;-66
2024/01/07 03:18:20;;;;;;;6.53;3.33;;;;;;;;;;5054945;28;20033;-66
2024/01/07 03:21:05;;;;;;;7.28;4.03;;;;;;;;;;5054119;28;20025;-67
2024/01/07 03:23:51;;;;;;;7.78;3.75;;;;;;;;;;5054102;28;20017;-67
2024/01/07 03:26:37;;;;;;;7.03;4.20;;;;;;;;;;5053780;28;20482;-66
2024/01/07 03:29:22;;;;;;;9.18;3.25;;;;;;;;;;5055440;28;20028;-67
2024/01/07 03:32:08;;;;;;;7.70;4.32;;;;;;;;;;5053908;28;20481;-66
2024/01/07 03:34:53;;;;;;;6.95;4.22;;;;;;;;;;5052591;28;20032;-66
2024/01/07 03:37:39;;;;;;;9.15;4.03;;;;;;;;;;5054270;28;20021;-66
2024/01/07 03:40:25;;;;;;;15.98;4.25;;;;;;;;;;5053197;28;20107;-66
2024/01/07 03:43:10;;;;;;;6.75;4.25;;;;;;;;;;5055144;28;20032;-67
2024/01/07 03:45:56;;;;;;;9.13;4.90;;;;;;;;;;5053718;28;20025;-66
2024/01/07 03:48:43;;;;;;;7.47;4.25;;;;;;;;;;5053120;28;20017;-66
2024/01/07 03:51:28;;;;;;;7.28;4.72;;;;;;;;;;5053583;28;20029;-66
2024/01/07 03:54:14;;;;;;;8.48;4.32;;;;;;;;;;5054757;28;20029;-66
2024/01/07 03:57:00;;;;;;;6.97;4.22;;;;;;;;;;5052981;28;20142;-66
2024/01/07 03:59:45;;;;;;;6.38;4.28;;;;;;;;;;5053380;28;20029;-66
2024/01/07 04:02:31;;;;;;;10.90;4.60;;;;;;;;;;5054092;28;20025;-66
2024/01/07 04:05:17;;;;;;;5.60;3.65;;;;;;;;;;5054616;28;20027;-66
2024/01/07 04:08:03;;;;;;;7.93;3.83;;;;;;;;;;5072680;28;20505;-66
2024/01/07 04:10:49;;;;;;;8.93;4.45;;;;;;;;;;5072698;28;20024;-66
2024/01/07 04:13:35;;;;;;;8.38;4.50;;;;;;;;;;5074080;28;20031;-66
2024/01/07 04:16:21;;;;;;;12.57;4.95;;;;;;;;;;5072578;28;20050;-66
2024/01/07 04:19:06;;;;;;;11.00;4.40;;;;;;;;;;5073069;28;20025;-66
2024/01/07 04:21:52;;;;;;;9.73;4.35;;;;;;;;;;5072513;28;20599;-66
2024/01/07 04:24:41;;;;;;;9.25;4.05;;;;;;;;;;5072980;28;20512;-66
2024/01/07 04:27:27;;;;;;;6.95;3.97;;;;;;;;;;5059269;28;20028;-66
2024/01/07 04:30:12;;;;;;;10.43;4.03;;;;;;;;;;5073912;28;20028;-66
2024/01/07 04:32:58;;;;;;;15.25;4.38;;;;;;;;;;5072923;28;20039;-66
2024/01/07 04:35:43;;;;;;;6.10;4.13;;;;;;;;;;5072387;28;20028;-66
2024/01/07 04:38:29;;;;;;;5.30;3.95;;;;;;;;;;5072973;28;20056;-66
2024/01/07 04:41:15;;;;;;;5.88;3.65;;;;;;;;;;5072676;28;20035;-66
2024/01/07 04:44:00;;;;;;;9.43;3.78;;;;;;;;;;5072552;28;20512;-66
2024/01/07 04:46:47;;;;;;;8.82;3.50;;;;;;;;;;5072519;28;20069;-66
2024/01/07 04:49:33;;;;;;;7.88;4.20;;;;;;;;;;5057673;28;20024;-66
2024/01/07 04:52:18;;;;;;;8.52;3.92;;;;;;;;;;5071949;28;20024;-66
2024/01/07 04:55:04;;;;;;;6.88;3.55;;;;;;;;;;5072650;28;20487;-66
2024/01/07 04:57:50;;;;;;;7.53;4.28;;;;;;;;;;5072761;28;20098;-66
2024/01/07 05:00:36;;;;;;;7.43;3.47;;;;;;;;;;5073147;28;20572;-66
2024/01/07 05:03:21;;;;;;;6.75;3.22;;;;;;;;;;5072757;28;20032;-66
2024/01/07 05:06:10;;;;;;;7.00;3.67;;;;;;;;;;5072817;28;20481;-66
2024/01/07 05:08:56;;;;;;;5.40;3.55;;;;;;;;;;5072419;28;20017;-66
2024/01/07 05:11:41;;;;;;;9.65;4.28;;;;;;;;;;5072375;28;20051;-66
2024/01/07 05:14:27;;;;;;;6.53;4.00;;;;;;;;;;5072297;28;20035;-66
2024/01/07 05:17:13;;;;;;;6.20;4.00;;;;;;;;;;5071874;28;20495;-65
2024/01/07 05:19:58;;;;;;;6.28;4.13;;;;;;;;;;5072774;28;20043;-65
2024/01/07 05:22:44;;;;;;;5.75;3.35;;;;;;;;;;5071811;28;20025;-66
2024/01/07 05:25:29;;;;;;;4.88;2.95;;;;;;;;;;5072370;28;20489;-66
2024/01/07 05:28:19;;;;;;;6.43;3.17;;;;;;;;;;5072020;28;20024;-66
2024/01/07 05:31:04;;;;;;;7.90;3.63;;;;;;;;;;5072287;28;20024;-66
2024/01/07 05:33:50;;;;;;;4.78;3.58;;;;;;;;;;5072601;28;20031;-66
2024/01/07 05:36:36;;;;;;;6.80;3.97;;;;;;;;;;5071518;28;20028;-66
2024/01/07 05:39:22;;;;;;;8.02;3.58;;;;;;;;;;5071978;28;20445;-66
2024/01/07 05:42:07;;;;;;;5.68;4.57;;;;;;;;;;5071922;28;20027;-66
2024/01/07 05:44:53;;;;;;;8.55;3.67;;;;;;;;;;5071855;28;20024;-66
2024/01/07 05:47:40;;;;;;;11.07;3.78;;;;;;;;;;5071314;28;20016;-65
2024/01/07 05:50:26;;;;;;;13.57;3.92;;;;;;;;;;5072126;28;20021;-66
2024/01/07 05:53:11;;;;;;;4.40;3.30;;;;;;;;;;5071965;28;20498;-65
2024/01/07 05:55:57;;;;;;;8.60;3.85;;;;;;;;;;5072281;28;20024;-66
2024/01/07 05:58:42;;;;;;;6.90;3.55;;;;;;;;;;5074431;28;20021;-66
2024/01/07 06:01:28;;;;;;;4.90;3.42;;;;;;;;;;5075688;28;20074;-66
2024/01/07 06:04:14;;;;;;;8.70;3.55;;;;;;;;;;5075741;28;20086;-66
2024/01/07 06:06:59;;;;;;;9.30;3.75;;;;;;;;;;5075324;28;20489;-66
2024/01/07 06:09:45;;;;;;;5.13;3.45;;;;;;;;;;5076385;28;20115;-65
2024/01/07 06:12:31;;;;;;;5.30;4.18;;;;;;;;;;5075432;28;20408;-66
2024/01/07 06:15:17;;;;;;;9.52;3.40;;;;;;;;;;5056718;28;20028;-66
2024/01/07 06:18:02;;;;;;;4.53;3.28;;;;;;;;;;5054577;28;20025;-65
2024/01/07 06:20:48;;;;;;;5.68;3.85;;;;;;;;;;5056752;28;20028;-66
2024/01/07 06:23:34;;;;;;;5.40;3.05;;;;;;;;;;5055027;28;20052;-66
2024/01/07 06:26:19;;;;;;;4.18;3.22;;;;;;;;;;5054972;28;20025;-66
2024/01/07 06:29:05;;;;;;;8.10;4.88;;;;;;;;;;5059950;28;20401;-66
2024/01/07 06:31:51;;;;;;;6.95;3.30;;;;;;;;;;5075402;28;20103;-66
2024/01/07 06:34:37;;;;;;;4.72;4.18;;;;;;;;;;5075403;28;20489;-66
2024/01/07 06:37:22;;;;;;;6.75;3.30;;;;;;;;;;5075227;28;20031;-66
2024/01/07 06:40:08;;;;;;;7.63;3.30;;;;;;;;;;5075356;28;20021;-66
2024/01/07 06:42:54;;;;;;;7.10;4.07;;;;;;;;;;5075883;28;20021;-66
2024/01/07 06:45:40;;;;;;;6.53;3.83;;;;;;;;;;5074732;28;20021;-66
2024/01/07 06:48:25;;;;;;;8.35;4.22;;;;;;;;;;5075576;28;20017;-66
2024/01/07 06:51:11;;;;;;;10.18;3.40;;;;;;;;;;5074720;28;20501;-66
2024/01/07 06:53:56;;;;;;;10.88;4.07;;;;;;;;;;5074854;28;20052;-66
2024/01/07 06:56:42;;;;;;;6.57;3.58;;;;;;;;;;5075358;28;20060;-66
2024/01/07 06:59:28;;;;;;;6.32;2.90;;;;;;;;;;5075557;28;20032;-66
2024/01/07 07:02:14;;;;;;;9.70;4.00;;;;;;;;;;5074401;28;20025;-65
2024/01/07 07:04:59;;;;;;;3.50;3.03;;;;;;;;;;5074358;28;20059;-66
2024/01/07 07:07:45;;;;;;;7.05;3.90;;;;;;;;;;5074533;28;20030;-66
2024/01/07 07:10:31;;;;;;;9.18;4.35;;;;;;;;;;5072592;28;20025;-65
2024/01/07 07:13:17;;;;;;;7.38;3.42;;;;;;;;;;5074269;28;20025;-66
2024/01/07 07:16:03;;;;;;;9.73;4.15;;;;;;;;;;5074056;28;20540;-65
2024/01/07 07:18:48;;;;;;;6.88;3.85;;;;;;;;;;5075075;28;20059;-65
2024/01/07 07:21:34;;;;;;;6.63;4.55;;;;;;;;;;5074326;28;20194;-66
2024/01/07 07:24:19;;;;;;;6.90;3.28;;;;;;;;;;5074907;28;20017;-66
2024/01/07 07:27:05;;;;;;;4.78;3.60;;;;;;;;;;5074017;28;20024;-66
2024/01/07 07:29:51;;;;;;;6.38;3.65;;;;;;;;;;5074031;28;20082;-66
2024/01/07 07:32:39;;;;;;;9.23;4.20;;;;;;;;;;5073266;28;20036;-66
2024/01/07 07:35:24;;;;;;;9.13;4.03;;;;;;;;;;5073690;28;20021;-66
2024/01/07 07:38:10;;;;;;;4.05;3.22;;;;;;;;;;5053234;28;20479;-66
2024/01/07 07:40:56;;;;;;;5.28;3.70;;;;;;;;;;5053208;28;20079;-66
2024/01/07 07:43:41;;;;;;;8.32;4.38;;;;;;;;;;5060685;28;20020;-66
2024/01/07 07:46:27;;;;;;;8.60;3.55;;;;;;;;;;5073499;28;20017;-66
2024/01/07 07:49:13;;;;;;;6.03;3.20;;;;;;;;;;5073193;28;20035;-66
2024/01/07 07:51:59;;;;;;;6.32;3.45;;;;;;;;;;5073805;28;20016;-66
2024/01/07 07:54:44;;;;;;;5.57;4.03;;;;;;;;;;5073406;28;20397;-66
2024/01/07 07:57:30;;;;;;;6.30;3.40;;;;;;;;;;5073906;28;20020;-65
2024/01/07 08:00:16;;;;;;;6.80;4.13;;;;;;;;;;5073119;28;20024;-66
2024/01/07 08:03:02;;;;;;;4.57;3.05;;;;;;;;;;5073780;28;20063;-66
2024/01/07 08:05:49;;;;;;;4.72;3.42;;;;;;;;;;5073078;28;20023;-66
2024/01/07 08:08:35;;;;;;;4.10;3.15;;;;;;;;;;5073327;28;20134;-66
2024/01/07 08:11:21;;;;;;;5.05;3.70;;;;;;;;;;5073166;28;20081;-66
2024/01/07 08:14:06;;;;;;;9.63;4.88;;;;;;;;;;5072664;28;20409;-66
2024/01/07 08:16:52;;;;;;;7.80;3.92;;;;;;;;;;5121020;22;20044;-68
2024/01/07 08:19:38;;;;;;;8.27;4.18;;;;;;;;;;5114121;28;20047;-69
2024/01/07 08:22:23;;;;;;;9.45;4.25;;;;;;;;;;5113165;28;20061;-69
2024/01/07 08:25:09;;;;;;;6.53;4.22;;;;;;;;;;5113366;28;20027;-69
2024/01/07 08:27:55;;;;;;;7.97;3.97;;;;;;;;;;5093089;28;20020;-69
2024/01/07 08:30:40;;;;;;;8.60;4.07;;;;;;;;;;5093389;28;20027;-68
2024/01/07 08:33:26;;;;;;;4.63;2.75;;;;;;;;;;5093863;28;20020;-68
2024/01/07 08:36:12;;;;;;;8.82;3.83;;;;;;;;;;5093016;28;20028;-69
2024/01/07 08:38:57;;;;;;;7.72;4.32;;;;;;;;;;5093150;28;20477;-69
2024/01/07 08:41:43;;;;;;;5.63;3.47;;;;;;;;;;5093247;28;20485;-68
2024/01/07 08:44:29;;;;;;;5.22;3.42;;;;;;;;;;5093393;28;20496;-69
2024/01/07 08:47:15;;;;;;;5.68;3.10;;;;;;;;;;5091892;28;20107;-68
2024/01/07 08:50:01;;;;;;;6.07;3.40;;;;;;;;;;5093272;28;20039;-70
2024/01/07 08:52:47;;;;;;;6.63;3.83;;;;;;;;;;5090440;28;20020;-68
2024/01/07 08:55:32;;;;;;;7.35;4.32;;;;;;;;;;5091319;28;20027;-69
2024/01/07 08:58:18;;;;;;;6.40;3.75;;;;;;;;;;5092899;28;20035;-69
2024/01/07 09:01:05;;;;;;;6.75;5.07;;;;;;;;;;5092648;28;20054;-69
2024/01/07 09:03:50;;;;;;;7.60;3.72;;;;;;;;;;5093178;28;20020;-69
2024/01/07 09:06:37;;;;;;;6.40;3.60;;;;;;;;;;5092792;28;20039;-69
2024/01/07 09:09:22;;;;;;;5.43;2.90;;;;;;;;;;5076432;28;20030;-69
2024/01/07 09:12:08;;;;;;;6.57;3.50;;;;;;;;;;5092691;28;20020;-69
2024/01/07 09:14:54;;;;;;;14.23;4.35;;;;;;;;;;5092739;28;20103;-69
2024/01/07 09:17:39;;;;;;;6.05;3.85;;;;;;;;;;5092407;28;20020;-69
2024/01/07 09:20:25;;;;;;;8.43;4.20;;;;;;;;;;5093595;28;20024;-69
2024/01/07 09:23:10;;;;;;;12.13;3.75;;;;;;;;;;5089840;28;20027;-68
2024/01/07 09:25:56;;;;;;;6.60;3.80;;;;;;;;;;5093075;28;20028;-69
2024/01/07 09:28:42;;;;;;;7.10;3.58;;;;;;;;;;5093057;28;20020;-68
2024/01/07 09:31:28;;;;;;;4.97;3.60;;;;;;;;;;5074851;28;20020;-69
2024/01/07 09:34:14;;;;;;;11.23;4.20;;;;;;;;;;5092257;28;20059;-68
2024/01/07 09:37:00;;;;;;;7.63;4.25;;;;;;;;;;5076899;28;20457;-69
2024/01/07 09:39:46;;;;;;;8.73;4.18;;;;;;;;;;5092651;28;20024;-69
2024/01/07 09:42:32;;;;;;;9.02;3.78;;;;;;;;;;5092275;28;20020;-69
2024/01/07 09:45:18;;;;;;;6.65;3.78;;;;;;;;;;5091658;28;20103;-68
2024/01/07 09:48:04;;;;;;;11.23;3.78;;;;;;;;;;5070410;28;20474;-69
2024/01/07 09:50:51;;;;;;;7.07;4.38;;;;;;;;;;5088566;28;20488;-69
2024/01/07 09:53:39;;;;;;;7.88;3.38;;;;;;;;;;5075333;28;20439;-69
2024/01/07 09:56:25;;;;;;;7.07;3.33;;;;;;;;;;5074847;28;20111;-69
2024/01/07 09:59:11;;;;;;;11.70;3.63;;;;;;;;;;5070785;28;20024;-69
2024/01/07 10:01:57;;;;;;;8.93;4.00;;;;;;;;;;5072500;28;20478;-69
2024/01/07 10:04:44;;;;;;;11.00;3.78;;;;;;;;;;5070951;28;20020;-69
2024/01/07 10:07:30;;;;;;;6.55;4.93;;;;;;;;;;5089272;28;20362;-71
2024/01/07 10:10:17;;;;;;;5.85;3.03;;;;;;;;;;5091758;28;20106;-71
2024/01/07 10:13:02;;;;;;;7.68;4.00;;;;;;;;;;5075827;28;20426;-70
2024/01/07 10:15:48;;;;;;;8.77;4.38;;;;;;;;;;5091822;28;20032;-69
2024/01/07 10:18:34;;;;;;;9.13;3.25;;;;;;;;;;5089915;28;20047;-70
2024/01/07 10:21:19;;;;;;;9.52;4.05;;;;;;;;;;5091318;28;20492;-69
2024/01/07 10:24:12;;;;;;;4.85;3.00;;;;;;;;;;5087685;28;20115;-69
2024/01/07 10:26:59;;;;;;;11.60;4.45;;;;;;;;;;5070209;28;20025;-70
2024/01/07 10:29:49;;;;;;;6.85;3.88;;;;;;;;;;5071048;28;20074;-69
2024/01/07 10:32:36;;;;;;;7.55;4.00;;;;;;;;;;5078025;28;20145;-69
2024/01/07 10:35:26;;;;;;;5.72;3.83;;;;;;;;;;5065937;28;20047;-69
2024/01/07 10:38:12;;;;;;;8.35;4.30;;;;;;;;;;5054880;28;20567;-70
2024/01/07 10:40:59;;;;;;;8.50;4.40;;;;;;;;;;5070886;28;20430;-70
2024/01/07 10:43:48;;;;;;;6.45;4.00;;;;;;;;;;5056845;28;20025;-70
2024/01/07 10:46:34;;;;;;;8.10;3.42;;;;;;;;;;5072061;28;20025;-70
2024/01/07 10:49:23;;;;;;;6.32;3.70;;;;;;;;;;5073572;28;20025;-69
2024/01/07 10:52:11;;;;;;;5.55;2.88;;;;;;;;;;5072713;28;20073;-70
2024/01/07 10:54:57;;;;;;;6.53;3.72;;;;;;;;;;5090715;28;20073;-69
2024/01/07 10:57:47;;;;;;;5.20;3.33;;;;;;;;;;5079013;28;20025;-70
2024/01/07 11:00:34;;;;;;;6.07;3.47;;;;;;;;;;5077912;28;20081;-70
2024/01/07 11:03:43;;;;;;;9.13;3.65;;;;;;;;;;5074766;28;20031;-70
2024/01/07 11:06:41;;;;;;;;;;;;;;;;;;5086866;28;20199;-70
2024/01/07 11:09:37;;;;;;;4.43;2.85;;;;;;;;;;5091124;28;19912;-70
2024/01/07 11:12:23;;;;;;;7.90;3.67;;;;;;;;;;5066680;28;20025;-70
2024/01/07 11:15:08;;;;;;;5.22;3.78;;;;;;;;;;5074674;28;20029;-69
2024/01/07 11:17:54;;;;;;;8.68;4.53;;;;;;;;;;5076791;28;20498;-70
2024/01/07 11:20:40;;;;;;;7.30;4.00;;;;;;;;;;5074456;28;20083;-70
2024/01/07 11:23:30;;;;;;;5.32;3.25;;;;;;;;;;5069634;28;20036;-69
2024/01/07 11:26:16;;;;;;;6.00;3.58;;;;;;;;;;5060769;28;20137;-69
2024/01/07 11:29:01;;;;;;;5.45;3.45;;;;;;;;;;5094676;28;20016;-70
2024/01/07 11:31:47;;;;;;;6.43;3.60;;;;;;;;;;5094964;28;20422;-70
2024/01/07 11:34:43;;;;;;;5.68;3.28;;;;;;;;;;5095260;28;20024;-70
2024/01/07 11:37:29;;;;;;;8.30;3.28;;;;;;;;;;5078130;28;20551;-70
2024/01/07 11:40:14;;;;;;;5.05;3.10;;;;;;;;;;5094889;28;20024;-70
2024/01/07 11:43:00;;;;;;;7.28;3.85;;;;;;;;;;5094745;28;20034;-70
2024/01/07 11:45:47;;;;;;;5.93;3.40;;;;;;;;;;5094478;28;20073;-70
2024/01/07 11:48:32;;;;;;;5.57;2.92;;;;;;;;;;5093138;28;20107;-70
2024/01/07 11:51:18;;;;;;;5.32;2.72;;;;;;;;;;5094003;28;20020;-70
2024/01/07 11:54:04;;;;;;;3.95;2.97;;;;;;;;;;5092865;28;20020;-69
2024/01/07 11:56:50;;;;;;;5.00;2.90;;;;;;;;;;5090376;28;20024;-69
2024/01/07 11:59:36;;;;;;;3.85;2.70;;;;;;;;;;5093564;28;20031;-69
2024/01/07 12:02:22;;;;;;;6.93;3.72;;;;;;;;;;5069453;28;20028;-69
2024/01/07 12:05:07;;;;;;;5.72;2.90;;;;;;;;;;5072753;28;20107;-69
2024/01/07 12:07:53;;;;;;;4.93;2.75;;;;;;;;;;5091949;28;20099;-69
2024/01/07 12:10:39;;;;;;;5.35;3.20;;;;;;;;;;5093855;28;20528;-69
2024/01/07 12:13:25;;;;;;;6.45;3.75;;;;;;;;;;5087357;28;20050;-69
2024/01/07 12:16:11;;;;;;;4.43;2.97;;;;;;;;;;5092434;28;20497;-69
2024/01/07 12:18:57;;;;;;;6.93;2.90;;;;;;;;;;5092869;28;20028;-70
2024/01/07 12:21:42;;;;;;;4.55;2.40;;;;;;;;;;5094142;28;20489;-69
2024/01/07 12:24:28;;;;;;;3.70;3.10;;;;;;;;;;5093675;28;20110;-72
2024/01/07 12:27:16;;;;;;;5.05;2.55;;;;;;;;;;5093295;28;20063;-69
2024/01/07 12:30:02;;;;;;;3.92;2.85;;;;;;;;;;5077519;28;20497;-70
2024/01/07 12:32:48;;;;;;;5.95;3.25;;;;;;;;;;5073236;28;20103;-69
2024/01/07 12:35:34;;;;;;;7.65;2.78;;;;;;;;;;5079537;28;20024;-69
2024/01/07 12:38:24;;;;;;;4.82;2.63;;;;;;;;;;5092214;28;20111;-69
2024/01/07 12:41:10;;;;;;;4.65;3.03;;;;;;;;;;5071831;28;20020;-69
2024/01/07 12:43:56;;;;;;;5.90;2.90;;;;;;;;;;5072120;28;20509;-69
2024/01/07 12:46:41;;;;;;;4.57;2.67;;;;;;;;;;5072465;28;20035;-68
2024/01/07 12:49:27;;;;;;;5.20;2.80;;;;;;;;;;5092793;28;20016;-68
2024/01/07 12:52:13;;;;;;;3.17;2.28;;;;;;;;;;5088776;28;20458;-68
2024/01/07 12:54:58;;;;;;;3.55;3.13;;;;;;;;;;5073164;28;20201;-69
2024/01/07 12:57:44;;;;;;;7.22;2.78;;;;;;;;;;5075535;28;20059;-68
2024/01/07 13:00:30;;;;;;;6.75;4.10;;;;;;;;;;5093026;28;20504;-68
2024/01/07 13:03:19;;;;;;;5.85;3.08;;;;;;;;;;5091529;28;20020;-69
2024/01/07 13:06:04;;;;;;;6.75;2.63;;;;;;;;;;5075945;28;20035;-69
2024/01/07 13:08:50;;;;;;;5.95;3.00;;;;;;;;;;5072554;28;20059;-69
2024/01/07 13:11:36;;;;;;;4.53;2.53;;;;;;;;;;5059206;28;20028;-69
2024/01/07 13:14:21;;;;;;;3.20;2.38;;;;;;;;;;5059777;28;20107;-69
2024/01/07 13:17:08;;;;;;;3.45;2.17;;;;;;;;;;5072206;28;20032;-69
2024/01/07 13:19:53;;;;;;;5.80;2.33;;;;;;;;;;5062832;28;20049;-69
2024/01/07 13:22:40;;;;;;;4.53;2.92;;;;;;;;;;5072597;28;20025;-68
2024/01/07 13:25:25;;;;;;;5.88;3.10;;;;;;;;;;5080802;28;20028;-69
2024/01/07 13:28:11;;;;;;;4.50;3.17;;;;;;;;;;5088873;28;20073;-69
2024/01/07 13:30:57;;;;;;;8.77;2.58;;;;;;;;;;5092848;28;20081;-70
2024/01/07 13:33:42;;;;;;;5.25;2.85;;;;;;;;;;5092724;28;20020;-69
2024/01/07 13:36:28;;;;;;;7.65;3.22;;;;;;;;;;5083764;28;20025;-69
2024/01/07 13:39:16;;;;;;;4.47;2.97;;;;;;;;;;5074936;28;20070;-69
2024/01/07 13:42:02;;;;;;;5.95;3.58;;;;;;;;;;5083859;28;20024;-69
2024/01/07 13:44:47;;;;;;;4.50;3.03;;;;;;;;;;5070343;28;20021;-69
2024/01/07 13:47:35;;;;;;;7.18;3.63;;;;;;;;;;5090176;28;20016;-69
2024/01/07 13:50:21;;;;;;;5.10;2.78;;;;;;;;;;5091397;28;20437;-69
2024/01/07 13:53:06;;;;;;;4.05;2.50;;;;;;;;;;5092228;28;20039;-69
2024/01/07 13:55:52;;;;;;;4.30;2.80;;;;;;;;;;5076695;28;20042;-69
2024/01/07 13:58:38;;;;;;;4.32;3.05;;;;;;;;;;5071008;28;20039;-68
2024/01/07 14:01:23;;;;;;;4.25;2.90;;;;;;;;;;5076360;28;20116;-69
2024/01/07 14:04:09;;;;;;;2.83;2.38;;;;;;;;;;5071405;28;20040;-69
2024/01/07 14:06:56;;;;;;;7.40;2.90;;;;;;;;;;5080876;28;20021;-70
2024/01/07 14:09:42;;;;;;;10.00;2.88;;;;;;;;;;5070430;28;20078;-69
2024/01/07 14:12:28;;;;;;;5.15;2.35;;;;;;;;;;5078148;28;20103;-68
2024/01/07 14:15:13;;;;;;;3.58;2.60;;;;;;;;;;5090073;28;20028;-68
2024/01/07 14:17:59;;;;;;;4.45;2.75;;;;;;;;;;5091527;28;20068;-68
2024/01/07 14:20:44;;;;;;;6.10;3.08;;;;;;;;;;5093566;28;20085;-69
2024/01/07 14:23:31;;;;;;;4.32;2.53;;;;;;;;;;5096016;28;20020;-72
2024/01/07 14:26:16;;;;;;;4.55;3.17;;;;;;;;;;5079061;28;20019;-68
2024/01/07 14:29:03;;;;;;;4.25;3.15;;;;;;;;;;5090862;28;20013;-68
2024/01/07 14:31:49;;;;;;;5.20;2.78;;;;;;;;;;5074088;28;20067;-69
2024/01/07 14:34:38;;;;;;;4.75;2.90;;;;;;;;;;5075123;28;20123;-68
2024/01/07 14:37:23;;;;;;;4.47;3.22;;;;;;;;;;5095123;28;20039;-68
2024/01/07 14:40:09;;;;;;;4.05;2.72;;;;;;;;;;5094498;28;20106;-67
2024/01/07 14:42:57;;;;;;;6.55;3.42;;;;;;;;;;5074388;28;20025;-69
2024/01/07 14:45:43;;;;;;;4.28;3.17;;;;;;;;;;5077497;28;20039;-69
2024/01/07 14:48:29;;;;;;;3.83;2.88;;;;;;;;;;5087964;28;20039;-69
2024/01/07 14:51:14;;;;;;;5.57;3.65;;;;;;;;;;5079292;28;20507;-69
2024/01/07 14:54:00;;;;;;;5.93;3.28;;;;;;;;;;5081164;28;20111;-68
2024/01/07 14:56:45;;;;;;;5.47;3.50;;;;;;;;;;5074854;28;20110;-68
2024/01/07 14:59:31;;;;;;;5.20;2.83;;;;;;;;;;5077060;28;20024;-69
2024/01/07 15:02:17;;;;;;;5.22;3.28;;;;;;;;;;5074763;28;20448;-68
2024/01/07 15:05:03;;;;;;;4.65;2.72;;;;;;;;;;5076648;28;20024;-69
2024/01/07 15:07:48;;;;;;;8.05;4.60;;;;;;;;;;5093858;28;20020;-68
2024/01/07 15:10:34;;;;;;;4.25;3.00;;;;;;;;;;5080976;28;20051;-68
2024/01/07 15:13:20;;;;;;;4.93;3.22;;;;;;;;;;5086268;28;20099;-69
2024/01/07 15:16:06;;;;;;;5.03;3.58;;;;;;;;;;5094172;28;20028;-68
2024/01/07 15:18:51;;;;;;;4.30;3.38;;;;;;;;;;5082994;28;20414;-68
2024/01/07 15:21:37;;;;;;;5.38;2.85;;;;;;;;;;5073807;28;20432;-68
2024/01/07 15:24:23;;;;;;;5.80;3.25;;;;;;;;;;5076152;28;20028;-70
2024/01/07 15:27:08;;;;;;;8.27;3.30;;;;;;;;;;5079673;28;20035;-68
2024/01/07 15:29:54;;;;;;;4.43;3.47;;;;;;;;;;5087744;28;20020;-68
2024/01/07 15:32:39;;;;;;;5.45;3.42;;;;;;;;;;5082646;28;20069;-67
2024/01/07 15:35:25;;;;;;;5.13;3.15;;;;;;;;;;5078891;28;20052;-68
2024/01/07 15:38:11;;;;;;;5.90;4.00;;;;;;;;;;5076610;28;20103;-68
2024/01/07 15:40:56;;;;;;;6.18;3.10;;;;;;;;;;5084897;28;20093;-68
2024/01/07 15:43:42;;;;;;;5.00;3.80;;;;;;;;;;5082751;28;20032;-68
2024/01/07 15:46:28;;;;;;;5.78;4.00;;;;;;;;;;5080472;28;20512;-68
2024/01/07 15:49:13;;;;;;;4.60;3.25;;;;;;;;;;5080477;28;20482;-68
2024/01/07 15:51:59;;;;;;;5.18;3.70;;;;;;;;;;5078172;28;20140;-68
2024/01/07 15:54:44;;;;;;;7.22;3.92;;;;;;;;;;5085633;28;20104;-67
2024/01/07 15:57:30;;;;;;;7.65;3.90;;;;;;;;;;5082667;28;20027;-68
2024/01/07 16:00:16;;;;;;;6.85;3.70;;;;;;;;;;5085199;28;20500;-68
2024/01/07 16:03:02;;;;;;;5.28;3.90;;;;;;;;;;5088620;28;20115;-69
2024/01/07 16:05:47;;;;;;;6.47;3.33;;;;;;;;;;5083831;28;20028;-68
2024/01/07 16:08:33;;;;;;;6.25;3.45;;;;;;;;;;5076662;28;20515;-68
2024/01/07 16:11:19;;;;;;;6.18;2.97;;;;;;;;;;5084587;28;20062;-69
2024/01/07 16:14:04;;;;;;;5.40;3.13;;;;;;;;;;5090197;28;20039;-68
2024/01/07 16:16:51;;;;;;;9.68;3.63;;;;;;;;;;5087382;28;20070;-68
2024/01/07 16:19:36;;;;;;;4.45;3.28;;;;;;;;;;5085883;28;20078;-68
2024/01/07 16:22:22;;;;;;;6.97;3.00;;;;;;;;;;5082638;28;20030;-68
2024/01/07 16:25:08;;;;;;;5.68;3.47;;;;;;;;;;5081391;28;20481;-67
2024/01/07 16:27:54;;;;;;;6.30;3.05;;;;;;;;;;5083844;28;20097;-68
2024/01/07 16:30:40;;;;;;;8.95;3.40;;;;;;;;;;5081164;28;20036;-68
2024/01/07 16:33:25;;;;;;;6.47;2.95;;;;;;;;;;5081573;28;20031;-68